首页
METAR-TAF:

METAR-TAF

机场 :

谢列梅捷沃国际机场

莫斯科舍列梅季耶夫, 俄罗斯

纬度: 55-58N, 经度: 037-25E, 海拔: 190米

当前天气观测

该预报发布于31分钟前的09:00 UTC
风速12节,风向西转西北
温度 10°C
湿度 76%
气压 1011 hPa
能见度10公里或以上
多云层高于2000英尺

METAR: UUEE 190900Z 30006MPS 9999 BKN020 10/06 Q1011 R24L/CLRD62 R24R/CLRD62 NOSIG

时间: 12:31 (09:31 UTC)

预报

该预报发布于1小时和38分钟前的07:53 UTC
预报有效从19日的 09点(UTC)到 20日的 09点(UTC)
风速12节,风向西转西北
能见度10公里或以上
多云层高于1600英尺
短暂存在
从 19日的 09点(UTC)到 19日的 15点(UTC)
风速16节,风向西北,有时为29节阵风
散云层高于600英尺
小雨
短暂存在
从 20日的 06点(UTC)到 20日的 09点(UTC)
风速16节,风向西北,有时为29节阵风

TAF: UUEE 190753Z 1909/2009 29006MPS 9999 BKN016 TX13/1912Z TN05/2002Z TEMPO 1909/1915 32008G15MPS -RA SCT006 TEMPO 2006/2009 32008G15MPS

超过4000个机场的气象观测和天气预报(METAR&TAF报告)。

可查询的气象台以黄色和红色小点在地图上表示。

将鼠标移到小点上方,可查看气象台名称。

然后点击查看天气观测和预报。

如需切换地图:点击带黑十字的绿色按钮放大地图;点击带横线的绿色按钮缩小地图;或者点击绿色箭头查看邻近地区的地图。


METAR-TAF: